createdAt,value
2023-05-23T00:03:35.727Z,8.60
2023-05-23T00:06:07.248Z,6.40
2023-05-23T00:08:35.375Z,8.70
2023-05-23T00:11:03.565Z,12.20
2023-05-23T00:13:32.168Z,7.60
2023-05-23T00:16:00.932Z,10.30
2023-05-23T00:18:29.220Z,8.30
2023-05-23T00:20:57.957Z,11.50
2023-05-23T00:23:26.270Z,10.20
2023-05-23T00:25:54.565Z,15.50
2023-05-23T00:28:23.169Z,12.20
2023-05-23T00:30:51.569Z,8.60
2023-05-23T00:33:20.490Z,16.10
2023-05-23T00:35:48.774Z,15.10
2023-05-23T00:38:17.856Z,13.00
2023-05-23T00:40:47.714Z,11.50
2023-05-23T00:43:16.139Z,17.50
2023-05-23T00:45:44.674Z,15.20
2023-05-23T00:48:14.540Z,13.90
2023-05-23T00:50:43.212Z,10.50
2023-05-23T00:53:12.716Z,13.20
2023-05-23T00:55:41.417Z,17.00
2023-05-23T00:58:11.215Z,16.90
2023-05-23T01:00:40.276Z,12.70
2023-05-23T01:03:09.131Z,12.80
2023-05-23T01:05:40.519Z,11.00
2023-05-23T01:08:10.369Z,9.00
2023-05-23T01:10:39.401Z,5.30
2023-05-23T01:13:40.234Z,8.20
2023-05-23T01:16:17.944Z,9.50
2023-05-23T01:18:58.093Z,5.70
2023-05-23T01:21:27.535Z,4.20
2023-05-23T01:24:04.746Z,7.30
2023-05-23T01:26:52.606Z,7.20
2023-05-23T01:29:32.938Z,5.10
2023-05-23T01:32:02.802Z,5.80
2023-05-23T01:34:32.487Z,7.00
2023-05-23T01:37:00.927Z,5.50
2023-05-23T01:39:29.618Z,3.50
2023-05-23T01:41:58.178Z,4.50
2023-05-23T01:44:26.506Z,5.60
2023-05-23T01:46:54.682Z,6.60
2023-05-23T01:49:24.685Z,7.60
2023-05-23T01:51:54.072Z,5.00
2023-05-23T01:54:23.582Z,5.90
2023-05-23T01:56:51.959Z,8.00
2023-05-23T01:59:20.170Z,5.00
2023-05-23T02:01:49.485Z,12.70
2023-05-23T02:04:19.849Z,7.50
2023-05-23T02:06:48.066Z,18.00
2023-05-23T02:09:16.826Z,19.70
2023-05-23T02:11:45.026Z,11.50
2023-05-23T02:14:13.163Z,17.30
2023-05-23T02:16:41.351Z,23.10
2023-05-23T02:19:09.561Z,14.50
2023-05-23T02:21:38.320Z,17.00
2023-05-23T02:24:06.491Z,20.10
2023-05-23T02:26:34.547Z,15.00
2023-05-23T02:29:03.067Z,18.10
2023-05-23T02:31:31.905Z,21.20
2023-05-23T02:34:00.951Z,15.50
2023-05-23T02:36:30.216Z,22.30
2023-05-23T02:38:58.281Z,18.00
2023-05-23T02:41:27.610Z,28.90
2023-05-23T02:43:57.035Z,17.70
2023-05-23T02:46:25.902Z,20.20
2023-05-23T02:48:55.149Z,15.90
2023-05-23T02:51:23.773Z,24.30
2023-05-23T02:53:52.294Z,17.40
2023-05-23T02:56:22.117Z,26.40
2023-05-23T02:58:50.716Z,24.70
2023-05-23T03:01:19.809Z,49.80
2023-05-23T03:03:49.661Z,55.50
2023-05-23T03:06:18.413Z,128.30
2023-05-23T03:08:46.945Z,42.30
2023-05-23T03:11:15.865Z,53.40
2023-05-23T03:13:43.994Z,52.30
2023-05-23T03:16:12.181Z,72.60
2023-05-23T03:18:41.731Z,100.10
2023-05-23T03:21:10.245Z,106.20
2023-05-23T03:23:38.837Z,114.50
2023-05-23T03:26:07.077Z,99.90
2023-05-23T03:28:35.362Z,86.50
2023-05-23T03:31:04.373Z,77.60
2023-05-23T03:33:33.630Z,75.00
2023-05-23T03:36:02.228Z,51.10
2023-05-23T03:38:30.883Z,49.50
2023-05-23T03:40:59.850Z,45.00
2023-05-23T03:43:29.558Z,43.50
2023-05-23T03:45:57.668Z,37.50
2023-05-23T03:48:26.407Z,18.20
2023-05-23T03:50:54.442Z,36.30
2023-05-23T03:53:22.663Z,25.00
2023-05-23T03:55:51.520Z,33.90
2023-05-23T03:58:20.786Z,37.40
2023-05-23T04:00:48.825Z,29.30
2023-05-23T04:03:17.642Z,24.80
2023-05-23T04:05:46.948Z,24.00
2023-05-23T04:08:15.827Z,23.70
2023-05-23T04:10:43.955Z,24.50
2023-05-23T04:13:12.616Z,25.20
2023-05-23T04:15:41.090Z,23.70
2023-05-23T04:18:09.652Z,23.80
2023-05-23T04:20:39.394Z,25.50
2023-05-23T04:23:08.609Z,28.30
2023-05-23T04:25:37.316Z,13.40
2023-05-23T04:28:06.051Z,23.80
2023-05-23T04:30:35.297Z,21.00
2023-05-23T04:33:03.968Z,22.40
2023-05-23T04:35:32.676Z,28.60
2023-05-23T04:38:02.246Z,28.50
2023-05-23T04:40:31.302Z,22.60
2023-05-23T04:42:59.620Z,22.90
2023-05-23T04:45:27.856Z,27.70
2023-05-23T04:47:57.016Z,25.90
2023-05-23T04:50:25.681Z,20.20
2023-05-23T04:52:54.918Z,26.80
2023-05-23T04:55:23.977Z,25.20
2023-05-23T04:57:52.759Z,24.70
2023-05-23T05:00:20.895Z,22.70
2023-05-23T05:02:50.126Z,22.40
2023-05-23T05:05:19.813Z,50.70
2023-05-23T05:07:47.921Z,32.60
2023-05-23T05:10:16.469Z,40.60
2023-05-23T05:12:46.249Z,42.00
2023-05-23T05:15:14.424Z,37.60
2023-05-23T05:17:43.906Z,45.70
2023-05-23T05:20:12.219Z,37.60
2023-05-23T05:22:41.097Z,27.00
2023-05-23T05:25:11.262Z,24.60
2023-05-23T05:27:40.083Z,23.50
2023-05-23T05:30:09.790Z,31.40
2023-05-23T05:32:38.120Z,35.30
2023-05-23T05:35:06.911Z,23.20
2023-05-23T05:37:36.007Z,26.40
2023-05-23T05:40:04.629Z,33.60
2023-05-23T05:42:33.134Z,38.10
2023-05-23T05:45:01.482Z,33.70
2023-05-23T05:47:30.671Z,19.00
2023-05-23T05:49:59.259Z,36.20
2023-05-23T05:52:28.352Z,23.50
2023-05-23T05:54:56.608Z,28.00
2023-05-23T05:57:25.144Z,33.20
2023-05-23T05:59:53.230Z,24.40
2023-05-23T06:02:22.131Z,18.80
2023-05-23T06:04:50.952Z,23.60
2023-05-23T06:07:19.043Z,19.00
2023-05-23T06:09:47.864Z,28.40
2023-05-23T06:12:16.493Z,22.50
2023-05-23T06:14:44.564Z,20.80
2023-05-23T06:17:14.501Z,14.60
2023-05-23T06:19:43.990Z,7.70
2023-05-23T06:22:12.255Z,9.90
2023-05-23T06:24:41.579Z,7.80
2023-05-23T06:27:10.939Z,14.60
2023-05-23T06:29:39.793Z,15.30
2023-05-23T06:32:08.653Z,18.90
2023-05-23T06:34:37.308Z,20.80
2023-05-23T06:37:05.623Z,19.70
2023-05-23T06:39:33.834Z,14.80
2023-05-23T06:42:01.910Z,10.00
2023-05-23T06:44:30.497Z,13.00
2023-05-23T06:46:59.151Z,10.80
2023-05-23T06:49:27.986Z,7.40
2023-05-23T06:51:56.167Z,14.30
2023-05-23T06:54:24.790Z,8.60
2023-05-23T06:56:52.865Z,9.60
2023-05-23T06:59:20.957Z,7.40
2023-05-23T07:01:49.461Z,14.00
2023-05-23T07:04:17.570Z,9.30
2023-05-23T07:06:45.735Z,15.20
2023-05-23T07:09:14.322Z,8.70
2023-05-23T07:11:45.753Z,10.70
2023-05-23T07:14:14.044Z,6.00
2023-05-23T07:16:42.156Z,10.40
2023-05-23T07:19:10.459Z,5.90
2023-05-23T07:21:38.701Z,5.70
2023-05-23T07:24:06.959Z,5.60
2023-05-23T07:26:35.201Z,7.80
2023-05-23T07:29:05.105Z,6.50
2023-05-23T07:31:33.332Z,6.90
2023-05-23T07:34:02.756Z,5.70
2023-05-23T07:36:31.179Z,4.40
2023-05-23T07:38:59.360Z,5.10
2023-05-23T07:41:27.423Z,7.80
2023-05-23T07:43:56.304Z,6.80
2023-05-23T07:46:24.979Z,4.40
2023-05-23T07:48:53.570Z,16.40
2023-05-23T07:51:21.780Z,9.60
2023-05-23T07:53:50.953Z,9.20
2023-05-23T07:56:22.702Z,10.90
2023-05-23T07:58:51.484Z,8.60
2023-05-23T08:01:19.823Z,7.30
2023-05-23T08:03:48.458Z,6.20
2023-05-23T08:06:18.726Z,12.90
2023-05-23T08:08:47.737Z,5.80
2023-05-23T08:11:16.148Z,5.70
2023-05-23T08:13:44.907Z,6.90
2023-05-23T08:16:12.985Z,4.60
2023-05-23T08:18:42.764Z,9.50
2023-05-23T08:21:12.084Z,7.00
2023-05-23T08:23:40.425Z,5.30
2023-05-23T08:26:08.993Z,5.10
2023-05-23T08:28:38.458Z,5.20
2023-05-23T08:31:06.681Z,5.90
2023-05-23T08:33:35.348Z,3.40
2023-05-23T08:36:05.358Z,6.60
2023-05-23T08:38:34.674Z,5.00
2023-05-23T08:41:03.258Z,3.50
2023-05-23T08:43:31.549Z,3.00
2023-05-23T08:45:59.798Z,3.30
2023-05-23T08:48:29.875Z,3.10
2023-05-23T08:50:59.666Z,4.20
2023-05-23T08:53:29.238Z,5.00
2023-05-23T08:56:03.863Z,5.90
2023-05-23T08:58:33.317Z,4.30
2023-05-23T09:01:02.297Z,3.40
2023-05-23T09:03:31.619Z,5.00
2023-05-23T09:06:00.469Z,2.00
2023-05-23T09:08:28.952Z,3.40
2023-05-23T09:10:57.342Z,3.00
2023-05-23T09:13:25.954Z,2.30
2023-05-23T09:16:03.023Z,2.40
2023-05-23T09:18:43.121Z,4.30
2023-05-23T09:21:13.279Z,3.20
2023-05-23T09:23:42.056Z,4.10
2023-05-23T09:26:14.437Z,2.70
2023-05-23T09:28:44.480Z,3.10
2023-05-23T09:31:12.670Z,5.90
2023-05-23T09:33:46.491Z,3.40
2023-05-23T09:36:15.848Z,2.60
2023-05-23T09:38:45.953Z,2.70
2023-05-23T09:41:14.990Z,3.90
2023-05-23T09:43:54.039Z,2.90
2023-05-23T09:46:23.112Z,3.80
2023-05-23T09:48:51.884Z,3.10
2023-05-23T09:51:22.164Z,3.70
2023-05-23T09:53:51.330Z,3.20
2023-05-23T09:56:20.528Z,3.70
2023-05-23T09:58:50.917Z,6.10
2023-05-23T10:01:20.284Z,6.90
2023-05-23T10:03:50.988Z,5.50
2023-05-23T10:06:26.681Z,5.90
2023-05-23T10:09:02.228Z,5.00
2023-05-23T10:11:34.257Z,5.40
2023-05-23T10:14:09.648Z,4.60
2023-05-23T10:17:14.753Z,7.00
2023-05-23T10:20:05.198Z,5.30
2023-05-23T10:22:37.800Z,6.00
2023-05-23T10:25:06.616Z,6.80
2023-05-23T10:27:42.497Z,5.60
2023-05-23T10:30:11.772Z,6.90
2023-05-23T10:32:40.726Z,6.80
2023-05-23T10:35:23.701Z,7.90
2023-05-23T10:38:27.095Z,4.20
2023-05-23T10:41:07.696Z,4.50
2023-05-23T10:44:02.907Z,6.90
2023-05-23T10:47:04.826Z,7.70
2023-05-23T10:49:52.631Z,6.70
2023-05-23T10:52:24.767Z,7.00
2023-05-23T10:54:54.992Z,5.70
2023-05-23T10:57:26.500Z,4.60
2023-05-23T10:59:55.737Z,5.20
2023-05-23T11:02:29.606Z,5.00
2023-05-23T11:05:24.826Z,6.50
2023-05-23T11:08:10.883Z,5.60
2023-05-23T11:11:05.269Z,8.60
2023-05-23T11:13:59.451Z,9.30
2023-05-23T11:16:33.392Z,8.20
2023-05-23T11:19:22.818Z,8.60
2023-05-23T11:21:54.616Z,12.30
2023-05-23T11:24:24.518Z,9.50
2023-05-23T11:26:59.231Z,13.00
2023-05-23T11:29:28.799Z,15.50
2023-05-23T11:31:57.672Z,15.40
2023-05-23T11:34:27.741Z,11.20
2023-05-23T11:36:57.250Z,10.70
2023-05-23T11:39:26.076Z,11.10
2023-05-23T11:42:05.348Z,12.10
2023-05-23T11:44:35.638Z,15.60
2023-05-23T11:47:07.205Z,18.30
2023-05-23T11:49:37.771Z,13.70
2023-05-23T11:52:07.624Z,10.50
2023-05-23T11:54:36.817Z,14.80
2023-05-23T11:57:05.997Z,11.40
2023-05-23T11:59:35.752Z,18.70
2023-05-23T12:02:05.649Z,11.80
2023-05-23T12:04:36.483Z,14.50
2023-05-23T12:07:06.264Z,17.70
2023-05-23T12:09:45.202Z,14.20
2023-05-23T12:12:15.229Z,11.30
2023-05-23T12:14:43.476Z,11.10
2023-05-23T12:17:13.984Z,16.90
2023-05-23T12:19:46.280Z,13.90
2023-05-23T12:22:23.567Z,16.30
2023-05-23T12:24:56.803Z,11.60
2023-05-23T12:27:30.479Z,13.70
2023-05-23T12:30:06.388Z,17.10
2023-05-23T12:32:35.051Z,14.20
2023-05-23T12:35:04.664Z,16.50
2023-05-23T12:37:33.176Z,17.80
2023-05-23T12:40:18.600Z,15.80
2023-05-23T12:42:49.997Z,20.20
2023-05-23T12:45:36.180Z,18.20
2023-05-23T12:48:05.312Z,15.80
2023-05-23T12:50:33.814Z,13.30
2023-05-23T12:53:02.271Z,16.40
2023-05-23T12:55:31.125Z,11.80
2023-05-23T12:58:02.259Z,14.50
2023-05-23T13:00:31.939Z,16.40
2023-05-23T13:03:00.636Z,9.90
2023-05-23T13:05:28.838Z,6.80
2023-05-23T13:07:57.641Z,10.40
2023-05-23T13:10:27.310Z,10.00
2023-05-23T13:12:57.597Z,11.80
2023-05-23T13:15:26.456Z,12.00
2023-05-23T13:17:54.768Z,12.90
2023-05-23T13:20:24.859Z,10.40
2023-05-23T13:22:53.929Z,10.30
2023-05-23T13:25:22.878Z,10.40
2023-05-23T13:27:51.584Z,18.30
2023-05-23T13:30:21.497Z,8.60
2023-05-23T13:32:51.796Z,20.40
2023-05-23T13:35:21.124Z,10.90
2023-05-23T13:37:49.803Z,10.40
2023-05-23T13:40:20.502Z,12.50
2023-05-23T13:42:51.291Z,10.60
2023-05-23T13:45:21.119Z,12.80
2023-05-23T13:47:50.084Z,12.70
2023-05-23T13:50:20.300Z,11.40
2023-05-23T13:52:49.804Z,9.80
2023-05-23T13:55:19.829Z,13.70
2023-05-23T13:57:49.383Z,15.80
2023-05-23T14:00:18.934Z,10.60
2023-05-23T14:02:47.904Z,14.30
2023-05-23T14:05:16.649Z,13.00
2023-05-23T14:07:45.328Z,10.80
2023-05-23T14:10:14.206Z,12.60
2023-05-23T14:12:43.189Z,15.60
2023-05-23T14:15:12.330Z,12.80
2023-05-23T14:17:40.495Z,20.00
2023-05-23T14:20:09.707Z,23.30
2023-05-23T14:22:37.876Z,17.30
2023-05-23T14:25:07.370Z,16.80
2023-05-23T14:27:35.732Z,16.10
2023-05-23T14:30:04.361Z,17.40
2023-05-23T14:32:33.488Z,14.30
2023-05-23T14:35:02.635Z,19.60
2023-05-23T14:37:31.426Z,10.60
2023-05-23T14:40:00.547Z,15.60
2023-05-23T14:42:29.940Z,15.70
2023-05-23T14:44:58.663Z,15.70
2023-05-23T14:47:27.315Z,14.40
2023-05-23T14:49:56.738Z,13.00
2023-05-23T14:52:25.886Z,12.10
2023-05-23T14:54:55.224Z,15.40
2023-05-23T14:57:24.841Z,8.80
2023-05-23T14:59:52.915Z,12.80
2023-05-23T15:02:22.350Z,11.20
2023-05-23T15:04:50.954Z,16.30
2023-05-23T15:07:19.671Z,13.50
2023-05-23T15:09:48.137Z,16.50
2023-05-23T15:12:17.431Z,14.20
2023-05-23T15:14:45.493Z,23.90
2023-05-23T15:17:14.904Z,12.60
2023-05-23T15:19:44.804Z,11.70
2023-05-23T15:22:33.527Z,14.60
2023-05-23T15:25:03.964Z,18.30
2023-05-23T15:27:32.108Z,19.20
2023-05-23T15:30:01.524Z,20.00
2023-05-23T15:32:31.386Z,14.70
2023-05-23T15:35:00.108Z,15.90
2023-05-23T15:37:29.212Z,16.60
2023-05-23T15:39:58.064Z,16.10
2023-05-23T15:42:26.332Z,18.70
2023-05-23T15:44:54.668Z,15.70
2023-05-23T15:47:24.262Z,7.60
2023-05-23T15:49:52.989Z,12.60
2023-05-23T15:52:21.143Z,12.80
2023-05-23T15:54:50.396Z,9.40
2023-05-23T15:57:19.272Z,15.40
2023-05-23T15:59:47.489Z,13.30
2023-05-23T16:02:17.295Z,16.00
2023-05-23T16:04:46.621Z,13.30
2023-05-23T16:07:18.176Z,10.90
2023-05-23T16:09:47.716Z,20.80
2023-05-23T16:12:16.163Z,12.10
2023-05-23T16:14:44.897Z,12.90
2023-05-23T16:17:13.223Z,11.20
2023-05-23T16:19:42.305Z,10.30
2023-05-23T16:22:10.565Z,10.20
2023-05-23T16:24:38.834Z,11.00
2023-05-23T16:27:07.640Z,13.60
2023-05-23T16:29:35.696Z,11.50
2023-05-23T16:32:05.104Z,16.00
2023-05-23T16:34:33.558Z,9.20
2023-05-23T16:37:02.904Z,14.20
2023-05-23T16:39:32.740Z,11.50
2023-05-23T16:42:01.396Z,9.90
2023-05-23T16:44:30.185Z,10.80
2023-05-23T16:46:58.447Z,11.70
2023-05-23T16:49:27.254Z,12.10
2023-05-23T16:51:56.503Z,10.00
2023-05-23T16:54:25.355Z,8.70
2023-05-23T16:56:53.995Z,11.90
2023-05-23T16:59:23.373Z,13.70
2023-05-23T17:01:51.869Z,14.00
2023-05-23T17:04:21.883Z,9.10
2023-05-23T17:06:51.490Z,11.40
2023-05-23T17:09:20.584Z,10.00
2023-05-23T17:11:49.955Z,11.60
2023-05-23T17:14:18.293Z,11.20
2023-05-23T17:16:46.520Z,15.10
2023-05-23T17:19:14.686Z,16.70
2023-05-23T17:21:44.617Z,13.80
2023-05-23T17:24:13.630Z,7.50
2023-05-23T17:26:42.947Z,12.50
2023-05-23T17:29:12.633Z,10.80
2023-05-23T17:31:41.363Z,11.70
2023-05-23T17:34:11.035Z,10.20
2023-05-23T17:36:39.312Z,12.70
2023-05-23T17:39:07.933Z,13.50
2023-05-23T17:41:36.221Z,13.40
2023-05-23T17:44:04.924Z,11.90
2023-05-23T17:46:34.271Z,7.20
2023-05-23T17:49:02.818Z,12.40
2023-05-23T17:51:31.726Z,7.30
2023-05-23T17:54:00.488Z,13.50
2023-05-23T17:56:29.818Z,12.80
2023-05-23T17:58:58.337Z,10.20
2023-05-23T18:01:27.050Z,13.40
2023-05-23T18:03:55.408Z,14.30
2023-05-23T18:06:24.611Z,14.10
2023-05-23T18:08:54.734Z,14.60
2023-05-23T18:11:24.301Z,12.10
2023-05-23T18:13:54.152Z,12.80
2023-05-23T18:16:22.595Z,19.30
2023-05-23T18:18:51.814Z,14.10
2023-05-23T18:21:20.874Z,12.40
2023-05-23T18:23:49.104Z,9.70
2023-05-23T18:26:18.460Z,11.60
2023-05-23T18:28:46.583Z,14.30
2023-05-23T18:31:15.698Z,18.80
2023-05-23T18:33:44.730Z,12.70
2023-05-23T18:36:13.537Z,21.00
2023-05-23T18:38:41.686Z,20.80
2023-05-23T18:41:11.026Z,22.30
2023-05-23T18:43:41.485Z,16.90
2023-05-23T18:46:10.561Z,15.00
2023-05-23T18:48:38.658Z,10.50
2023-05-23T18:51:06.949Z,14.80
2023-05-23T18:53:35.336Z,16.40
2023-05-23T18:56:03.850Z,11.50
2023-05-23T18:58:33.067Z,14.30
2023-05-23T19:01:01.668Z,24.10
2023-05-23T19:03:30.509Z,15.90
2023-05-23T19:05:59.456Z,21.30
2023-05-23T19:08:32.718Z,15.40
2023-05-23T19:11:01.501Z,15.10
2023-05-23T19:13:30.115Z,16.60
2023-05-23T19:15:58.835Z,16.00
2023-05-23T19:18:28.168Z,11.80
2023-05-23T19:20:57.030Z,9.70
2023-05-23T19:23:26.726Z,11.80
2023-05-23T19:25:54.764Z,14.00
2023-05-23T19:28:23.448Z,14.60
2023-05-23T19:30:52.158Z,17.40
2023-05-23T19:33:20.847Z,17.10
2023-05-23T19:35:49.280Z,17.10
2023-05-23T19:38:18.488Z,14.50
2023-05-23T19:40:47.331Z,16.40
2023-05-23T19:43:15.636Z,15.50
2023-05-23T19:45:43.847Z,19.10
2023-05-23T19:48:11.973Z,18.80
2023-05-23T19:50:40.614Z,14.60
2023-05-23T19:53:09.308Z,13.20
2023-05-23T19:55:38.415Z,15.60
2023-05-23T19:58:06.867Z,13.70
2023-05-23T20:00:35.506Z,15.90
2023-05-23T20:03:04.486Z,17.90
2023-05-23T20:05:33.293Z,20.90
2023-05-23T20:08:02.578Z,23.10
2023-05-23T20:10:30.865Z,19.60
2023-05-23T20:12:59.215Z,21.60
2023-05-23T20:15:39.448Z,29.30
2023-05-23T20:18:09.570Z,26.80
2023-05-23T20:20:38.637Z,28.90
2023-05-23T20:23:09.452Z,28.60
2023-05-23T20:25:37.927Z,28.90
2023-05-23T20:28:06.316Z,22.70
2023-05-23T20:30:35.107Z,27.00
2023-05-23T20:33:03.501Z,30.50
2023-05-23T20:35:33.445Z,27.50
2023-05-23T20:38:01.537Z,35.30
2023-05-23T20:40:30.608Z,35.50
2023-05-23T20:42:58.754Z,38.80
2023-05-23T20:45:27.340Z,42.40
2023-05-23T20:47:55.584Z,34.60
2023-05-23T20:50:25.386Z,36.20
2023-05-23T20:52:53.673Z,41.10
2023-05-23T20:55:22.014Z,36.00
2023-05-23T20:57:50.673Z,31.20
2023-05-23T21:00:19.480Z,40.00
2023-05-23T21:02:48.246Z,48.20
2023-05-23T21:05:17.539Z,40.70
2023-05-23T21:07:46.211Z,36.40
2023-05-23T21:10:14.614Z,48.20
2023-05-23T21:12:43.469Z,45.00
2023-05-23T21:15:11.799Z,39.10
2023-05-23T21:17:40.453Z,52.50
2023-05-23T21:20:10.938Z,45.70
2023-05-23T21:22:41.110Z,52.80
2023-05-23T21:25:09.505Z,41.80
2023-05-23T21:27:38.381Z,53.00
2023-05-23T21:30:07.655Z,37.80
2023-05-23T21:32:35.789Z,51.00
2023-05-23T21:35:04.743Z,43.00
2023-05-23T21:37:33.043Z,47.10
2023-05-23T21:40:01.718Z,49.20
2023-05-23T21:42:31.144Z,50.70
2023-05-23T21:44:59.384Z,48.00
2023-05-23T21:47:27.468Z,52.40
2023-05-23T21:49:56.009Z,53.60
2023-05-23T21:52:24.900Z,54.00
2023-05-23T21:54:54.231Z,64.10
2023-05-23T21:57:22.808Z,71.40
2023-05-23T21:59:52.066Z,72.40
2023-05-23T22:02:20.236Z,65.30
2023-05-23T22:04:50.199Z,75.10
2023-05-23T22:07:18.995Z,63.60
2023-05-23T22:09:49.937Z,76.90
2023-05-23T22:12:20.178Z,73.90
2023-05-23T22:14:50.536Z,76.80
2023-05-23T22:17:18.683Z,56.80
2023-05-23T22:19:47.312Z,56.40
2023-05-23T22:22:15.418Z,61.10
2023-05-23T22:24:43.710Z,62.50
2023-05-23T22:27:12.105Z,77.70
2023-05-23T22:29:40.230Z,59.80
2023-05-23T22:32:08.863Z,49.50
2023-05-23T22:34:37.155Z,59.10
2023-05-23T22:37:05.849Z,65.10
2023-05-23T22:39:34.193Z,60.30
2023-05-23T22:42:03.536Z,66.20
2023-05-23T22:44:32.558Z,47.60
2023-05-23T22:47:01.007Z,46.80
2023-05-23T22:49:29.951Z,50.90
2023-05-23T22:51:58.536Z,57.50
2023-05-23T22:54:27.579Z,45.60
2023-05-23T22:56:55.648Z,48.80
2023-05-23T22:59:23.830Z,51.30
2023-05-23T23:01:51.993Z,45.60
2023-05-23T23:04:20.649Z,45.90
2023-05-23T23:06:49.637Z,48.30
2023-05-23T23:09:18.229Z,51.00
2023-05-23T23:11:46.536Z,46.00
2023-05-23T23:14:15.109Z,55.40
2023-05-23T23:16:43.854Z,49.50
2023-05-23T23:19:13.490Z,50.30
2023-05-23T23:21:42.877Z,43.50
2023-05-23T23:24:11.523Z,37.20
2023-05-23T23:26:40.435Z,41.30
2023-05-23T23:29:08.607Z,43.90
2023-05-23T23:31:37.723Z,51.10
2023-05-23T23:34:06.342Z,43.90
2023-05-23T23:36:35.088Z,32.50
2023-05-23T23:39:04.798Z,41.80
2023-05-23T23:41:33.932Z,33.00
2023-05-23T23:44:02.431Z,34.00
2023-05-23T23:46:30.715Z,35.10
2023-05-23T23:48:58.873Z,34.30
2023-05-23T23:51:26.936Z,29.00
2023-05-23T23:53:55.864Z,27.30
2023-05-23T23:56:24.854Z,36.60
2023-05-23T23:58:53.510Z,33.90
